createdAt,value
2022-09-13T00:00:50.585Z,99.80
2022-09-13T00:03:21.001Z,99.70
2022-09-13T00:05:49.474Z,99.70
2022-09-13T00:08:18.167Z,99.60
2022-09-13T00:10:47.446Z,99.60
2022-09-13T00:13:16.922Z,99.60
2022-09-13T00:15:45.916Z,99.70
2022-09-13T00:18:14.225Z,99.60
2022-09-13T00:20:43.717Z,99.60
2022-09-13T00:23:12.108Z,99.60
2022-09-13T00:25:40.540Z,99.60
2022-09-13T00:28:08.803Z,99.80
2022-09-13T00:30:36.852Z,99.80
2022-09-13T00:33:05.150Z,99.90
2022-09-13T00:35:33.483Z,99.90
2022-09-13T00:38:03.098Z,99.70
2022-09-13T00:40:31.236Z,99.80
2022-09-13T00:42:59.426Z,99.90
2022-09-13T00:45:27.733Z,99.90
2022-09-13T00:47:59.822Z,99.90
2022-09-13T00:50:32.560Z,99.90
2022-09-13T00:53:06.476Z,99.90
2022-09-13T00:55:39.617Z,99.90
2022-09-13T00:58:12.026Z,99.90
2022-09-13T01:00:41.394Z,99.90
2022-09-13T01:03:13.369Z,99.90
2022-09-13T01:05:46.873Z,99.90
2022-09-13T01:08:22.437Z,99.90
2022-09-13T01:10:52.945Z,99.90
2022-09-13T01:13:23.988Z,99.90
2022-09-13T01:15:52.988Z,99.90
2022-09-13T01:18:21.356Z,99.90
2022-09-13T01:21:14.901Z,99.90
2022-09-13T01:24:08.928Z,99.90
2022-09-13T01:27:19.408Z,99.90
2022-09-13T01:30:11.626Z,99.90
2022-09-13T01:32:54.620Z,99.90
2022-09-13T01:35:30.209Z,99.90
2022-09-13T01:38:06.526Z,99.90
2022-09-13T01:40:49.422Z,99.90
2022-09-13T01:43:28.661Z,99.90
2022-09-13T01:46:06.436Z,99.90
2022-09-13T01:48:49.016Z,99.90
2022-09-13T01:51:27.530Z,99.90
2022-09-13T01:54:08.278Z,99.90
2022-09-13T01:56:44.699Z,99.90
2022-09-13T01:59:17.670Z,99.90
2022-09-13T02:01:55.534Z,99.90
2022-09-13T02:04:28.504Z,99.90
2022-09-13T02:07:03.624Z,99.90
2022-09-13T02:09:36.156Z,99.90
2022-09-13T02:12:10.173Z,99.90
2022-09-13T02:14:40.132Z,99.90
2022-09-13T02:17:15.346Z,99.90
2022-09-13T02:19:48.928Z,99.90
2022-09-13T02:22:21.001Z,99.90
2022-09-13T02:24:54.076Z,99.90
2022-09-13T02:27:26.043Z,99.90
2022-09-13T02:29:58.518Z,99.90
2022-09-13T02:32:33.556Z,99.90
2022-09-13T02:35:06.743Z,99.90
2022-09-13T02:37:39.221Z,99.90
2022-09-13T02:40:12.990Z,99.90
2022-09-13T02:42:45.364Z,99.90
2022-09-13T02:45:15.547Z,99.90
2022-09-13T02:47:54.153Z,99.90
2022-09-13T02:50:38.410Z,99.90
2022-09-13T02:53:16.296Z,99.90
2022-09-13T02:55:53.836Z,99.90
2022-09-13T02:58:31.059Z,99.90
2022-09-13T03:00:59.453Z,99.90
2022-09-13T03:03:32.704Z,99.90
2022-09-13T03:06:02.110Z,99.90
2022-09-13T03:08:31.694Z,99.90
2022-09-13T03:11:13.080Z,99.90
2022-09-13T03:13:59.037Z,99.90
2022-09-13T03:16:51.985Z,99.90
2022-09-13T03:19:38.209Z,99.90
2022-09-13T03:22:24.185Z,99.90
2022-09-13T03:25:04.157Z,99.90
2022-09-13T03:27:42.625Z,99.90
2022-09-13T03:30:14.751Z,99.90
2022-09-13T03:32:47.811Z,99.90
2022-09-13T03:35:26.266Z,99.90
2022-09-13T03:38:01.060Z,99.90
2022-09-13T03:40:38.477Z,99.90
2022-09-13T03:43:11.898Z,99.90
2022-09-13T03:45:44.778Z,99.90
2022-09-13T03:48:15.419Z,99.90
2022-09-13T03:50:48.377Z,99.90
2022-09-13T03:53:25.042Z,99.90
2022-09-13T03:55:53.531Z,99.90
2022-09-13T03:58:22.576Z,99.90
2022-09-13T04:00:50.692Z,99.90
2022-09-13T04:03:19.007Z,99.90
2022-09-13T04:05:48.556Z,99.90
2022-09-13T04:08:16.845Z,99.90
2022-09-13T04:10:44.879Z,99.90
2022-09-13T04:13:13.237Z,99.90
2022-09-13T04:15:41.465Z,99.90
2022-09-13T04:18:11.202Z,99.90
2022-09-13T04:20:39.235Z,99.90
2022-09-13T04:23:09.459Z,99.90
2022-09-13T04:25:40.547Z,99.90
2022-09-13T04:28:08.980Z,99.90
2022-09-13T04:30:40.687Z,99.90
2022-09-13T04:33:10.904Z,99.90
2022-09-13T04:35:39.388Z,99.90
2022-09-13T04:38:09.516Z,99.90
2022-09-13T04:40:39.092Z,99.90
2022-09-13T04:43:07.339Z,99.90
2022-09-13T04:45:35.563Z,99.90
2022-09-13T04:48:03.891Z,99.90
2022-09-13T04:50:32.086Z,99.90
2022-09-13T04:53:00.249Z,99.90
2022-09-13T04:55:30.019Z,99.90
2022-09-13T04:57:58.027Z,99.90
2022-09-13T05:00:26.328Z,99.90
2022-09-13T05:02:57.184Z,99.90
2022-09-13T05:05:28.899Z,99.90
2022-09-13T05:07:57.010Z,99.90
2022-09-13T05:10:25.211Z,99.90
2022-09-13T05:12:55.678Z,99.90
2022-09-13T05:15:26.754Z,99.90
2022-09-13T05:17:54.813Z,99.90
2022-09-13T05:20:23.044Z,99.90
2022-09-13T05:22:51.088Z,99.90
2022-09-13T05:25:21.965Z,99.90
2022-09-13T05:27:52.319Z,99.90
2022-09-13T05:30:23.677Z,99.90
2022-09-13T05:32:51.797Z,99.90
2022-09-13T05:35:20.112Z,99.90
2022-09-13T05:37:50.936Z,99.90
2022-09-13T05:40:19.412Z,99.90
2022-09-13T05:42:47.578Z,99.90
2022-09-13T05:45:15.916Z,99.90
2022-09-13T05:47:45.390Z,99.90
2022-09-13T05:50:27.495Z,99.90
2022-09-13T05:53:02.047Z,99.90
2022-09-13T05:55:31.148Z,99.90
2022-09-13T05:57:59.434Z,99.90
2022-09-13T06:00:27.430Z,99.90
2022-09-13T06:02:57.262Z,99.90
2022-09-13T06:05:29.829Z,99.90
2022-09-13T06:07:59.598Z,99.90
2022-09-13T06:10:27.716Z,99.90
2022-09-13T06:12:55.866Z,99.90
2022-09-13T06:15:24.137Z,99.90
2022-09-13T06:17:52.237Z,99.90
2022-09-13T06:20:21.676Z,99.90
2022-09-13T06:22:50.293Z,99.90
2022-09-13T06:25:18.917Z,99.90
2022-09-13T06:27:49.636Z,99.90
2022-09-13T06:30:19.522Z,99.90
2022-09-13T06:32:47.708Z,99.90
2022-09-13T06:35:16.608Z,99.90
2022-09-13T06:37:56.561Z,99.90
2022-09-13T06:40:25.424Z,99.90
2022-09-13T06:42:53.886Z,99.90
2022-09-13T06:45:22.013Z,99.90
2022-09-13T06:47:50.396Z,99.90
2022-09-13T06:50:18.756Z,99.90
2022-09-13T06:52:50.228Z,99.90
2022-09-13T06:55:20.148Z,99.90
2022-09-13T06:57:48.530Z,99.90
2022-09-13T07:00:17.274Z,99.90
2022-09-13T07:02:45.482Z,99.90
2022-09-13T07:05:13.550Z,99.90
2022-09-13T07:07:42.021Z,99.90
2022-09-13T07:10:11.054Z,99.90
2022-09-13T07:12:42.133Z,99.90
2022-09-13T07:15:11.062Z,99.90
2022-09-13T07:17:39.440Z,99.90
2022-09-13T07:20:08.906Z,99.90
2022-09-13T07:22:36.989Z,99.90
2022-09-13T07:25:08.181Z,99.90
2022-09-13T07:27:36.212Z,99.90
2022-09-13T07:30:06.788Z,99.90
2022-09-13T07:32:35.030Z,99.90
2022-09-13T07:35:02.988Z,99.90
2022-09-13T07:37:31.062Z,99.90
2022-09-13T07:39:59.083Z,99.90
2022-09-13T07:42:27.432Z,99.90
2022-09-13T07:44:55.364Z,99.90
2022-09-13T07:47:24.835Z,99.90
2022-09-13T07:49:53.023Z,99.90
2022-09-13T07:52:21.043Z,99.90
2022-09-13T07:54:49.244Z,99.90
2022-09-13T07:57:26.335Z,99.90
2022-09-13T07:59:55.430Z,99.90
2022-09-13T08:02:24.898Z,99.90
2022-09-13T08:04:53.067Z,99.90
2022-09-13T08:07:21.010Z,99.90
2022-09-13T08:09:49.201Z,99.90
2022-09-13T08:12:17.202Z,99.90
2022-09-13T08:14:45.356Z,99.90
2022-09-13T08:17:13.288Z,99.90
2022-09-13T08:19:42.988Z,99.90
2022-09-13T08:22:11.046Z,99.90
2022-09-13T08:24:39.240Z,99.90
2022-09-13T08:27:07.246Z,99.90
2022-09-13T08:29:35.398Z,99.90
2022-09-13T08:32:04.689Z,99.90
2022-09-13T08:34:32.884Z,99.90
2022-09-13T08:37:02.230Z,99.90
2022-09-13T08:39:30.538Z,99.90
2022-09-13T08:42:12.631Z,99.90
2022-09-13T08:44:46.977Z,99.90
2022-09-13T08:47:23.185Z,99.90
2022-09-13T08:49:54.327Z,99.90
2022-09-13T08:52:30.537Z,99.90
2022-09-13T08:55:00.125Z,99.90
2022-09-13T08:57:34.463Z,99.90
2022-09-13T09:00:12.740Z,99.90
2022-09-13T09:02:55.939Z,99.90
2022-09-13T09:05:26.533Z,99.90
2022-09-13T09:08:00.111Z,99.90
2022-09-13T09:10:33.017Z,99.90
2022-09-13T09:13:07.567Z,99.90
2022-09-13T09:15:40.639Z,99.90
2022-09-13T09:18:14.680Z,99.90
2022-09-13T09:20:45.306Z,99.90
2022-09-13T09:23:21.461Z,99.90
2022-09-13T09:25:53.066Z,99.90
2022-09-13T09:28:21.549Z,99.90
2022-09-13T09:30:58.682Z,99.00
2022-09-13T09:33:47.103Z,89.00
2022-09-13T09:36:22.236Z,68.10
2022-09-13T09:38:52.393Z,54.70
2022-09-13T09:41:28.374Z,48.20
2022-09-13T09:44:03.059Z,43.50
2022-09-13T09:46:36.355Z,42.40
2022-09-13T09:49:28.904Z,41.30
2022-09-13T09:51:58.877Z,41.60
2022-09-13T09:54:31.906Z,43.60
2022-09-13T09:57:00.590Z,45.90
2022-09-13T09:59:32.670Z,47.80
2022-09-13T10:02:02.071Z,46.90
2022-09-13T10:04:31.226Z,45.90
2022-09-13T10:07:25.352Z,45.00
2022-09-13T10:09:58.762Z,43.60
2022-09-13T10:12:34.019Z,40.60
2022-09-13T10:15:13.374Z,37.30
2022-09-13T10:17:41.460Z,34.20
2022-09-13T10:20:26.683Z,32.60
2022-09-13T10:23:13.210Z,31.10
2022-09-13T10:25:48.029Z,29.20
2022-09-13T10:28:24.276Z,28.60
2022-09-13T10:30:57.735Z,28.70
2022-09-13T10:33:32.100Z,29.10
2022-09-13T10:36:03.491Z,28.70
2022-09-13T10:38:34.143Z,28.40
2022-09-13T10:41:06.557Z,28.00
2022-09-13T10:43:34.823Z,27.00
2022-09-13T10:46:05.825Z,26.40
2022-09-13T10:48:55.904Z,26.60
2022-09-13T10:51:36.802Z,26.20
2022-09-13T10:54:20.483Z,25.80
2022-09-13T10:56:50.769Z,25.10
2022-09-13T10:59:23.447Z,24.80
2022-09-13T11:02:10.664Z,24.40
2022-09-13T11:05:06.336Z,24.80
2022-09-13T11:07:51.111Z,24.10
2022-09-13T11:10:29.711Z,23.80
2022-09-13T11:13:07.511Z,23.60
2022-09-13T11:15:46.533Z,23.50
2022-09-13T11:18:28.409Z,24.50
2022-09-13T11:21:10.495Z,25.30
2022-09-13T11:23:54.057Z,26.20
2022-09-13T11:26:41.981Z,26.90
2022-09-13T11:29:25.543Z,26.70
2022-09-13T11:32:01.597Z,25.60
2022-09-13T11:34:39.383Z,25.30
2022-09-13T11:37:32.185Z,24.80
2022-09-13T11:40:11.077Z,24.70
2022-09-13T11:42:50.763Z,24.10
2022-09-13T11:45:30.157Z,23.90
2022-09-13T11:48:41.366Z,23.60
2022-09-13T11:51:18.672Z,23.30
2022-09-13T11:54:03.380Z,23.40
2022-09-13T11:56:37.216Z,23.50
2022-09-13T11:59:17.190Z,23.40
2022-09-13T12:01:51.092Z,23.30
2022-09-13T12:04:25.621Z,23.30
2022-09-13T12:06:57.204Z,23.10
2022-09-13T12:09:30.090Z,23.40
2022-09-13T12:12:05.030Z,23.50
2022-09-13T12:14:43.782Z,23.50
2022-09-13T12:17:26.234Z,23.20
2022-09-13T12:19:57.224Z,23.30
2022-09-13T12:22:30.835Z,23.70
2022-09-13T12:25:03.860Z,23.60
2022-09-13T12:27:39.772Z,24.00
2022-09-13T12:30:16.361Z,23.80
2022-09-13T12:32:47.880Z,23.70
2022-09-13T12:35:24.865Z,23.70
2022-09-13T12:38:13.118Z,23.90
2022-09-13T12:41:05.720Z,23.70
2022-09-13T12:43:54.454Z,24.40
2022-09-13T12:46:54.667Z,24.70
2022-09-13T12:49:52.323Z,24.70
2022-09-13T12:52:40.865Z,25.30
2022-09-13T12:55:56.484Z,26.50
2022-09-13T12:59:01.281Z,27.20
2022-09-13T13:01:31.808Z,28.40
2022-09-13T13:04:04.463Z,29.10
2022-09-13T13:06:39.292Z,29.30
2022-09-13T13:09:28.597Z,29.50
2022-09-13T13:11:59.115Z,29.60
2022-09-13T13:14:31.417Z,29.00
2022-09-13T13:17:37.832Z,28.60
2022-09-13T13:20:45.974Z,28.30
2022-09-13T13:23:27.692Z,27.50
2022-09-13T13:26:14.051Z,28.00
2022-09-13T13:29:09.767Z,28.60
2022-09-13T13:31:41.135Z,28.80
2022-09-13T13:34:36.841Z,29.90
2022-09-13T13:37:07.416Z,30.50
2022-09-13T13:39:39.958Z,31.40
2022-09-13T13:42:25.593Z,32.40
2022-09-13T13:45:24.106Z,32.50
2022-09-13T13:48:19.781Z,33.30
2022-09-13T13:51:23.649Z,33.80
2022-09-13T13:53:57.413Z,34.10
2022-09-13T13:56:30.849Z,34.60
2022-09-13T13:59:07.717Z,35.00
2022-09-13T14:01:40.205Z,36.00
2022-09-13T14:04:40.766Z,36.30
2022-09-13T14:07:31.910Z,37.20
2022-09-13T14:10:11.311Z,38.40
2022-09-13T14:12:55.948Z,38.30
2022-09-13T14:15:37.308Z,38.40
2022-09-13T14:18:34.134Z,39.00
2022-09-13T14:21:04.544Z,39.50
2022-09-13T14:23:33.344Z,40.10
2022-09-13T14:26:02.859Z,40.40
2022-09-13T14:28:34.004Z,41.30
2022-09-13T14:31:02.488Z,40.60
2022-09-13T14:33:34.957Z,40.80
2022-09-13T14:36:06.838Z,41.30
2022-09-13T14:38:36.420Z,41.50
2022-09-13T14:41:14.563Z,41.80
2022-09-13T14:43:44.802Z,42.30
2022-09-13T14:46:23.163Z,42.60
2022-09-13T14:48:55.447Z,42.70
2022-09-13T14:51:27.744Z,43.20
2022-09-13T14:54:01.005Z,43.80
2022-09-13T14:56:39.333Z,44.20
2022-09-13T14:59:16.141Z,44.00
2022-09-13T15:01:44.529Z,44.90
2022-09-13T15:04:17.783Z,44.30
2022-09-13T15:06:46.280Z,44.30
2022-09-13T15:09:27.975Z,45.20
2022-09-13T15:12:00.053Z,46.10
2022-09-13T15:14:33.091Z,47.60
2022-09-13T15:17:14.229Z,48.10
2022-09-13T15:19:44.092Z,48.80
2022-09-13T15:22:25.275Z,49.50
2022-09-13T15:24:55.324Z,49.70
2022-09-13T15:27:28.517Z,51.00
2022-09-13T15:30:00.354Z,51.80
2022-09-13T15:32:35.290Z,51.80
2022-09-13T15:35:04.170Z,52.30
2022-09-13T15:37:35.919Z,53.00
2022-09-13T15:40:17.986Z,53.30
2022-09-13T15:42:50.565Z,54.20
2022-09-13T15:45:21.940Z,54.30
2022-09-13T15:47:51.895Z,55.30
2022-09-13T15:50:27.629Z,55.70
2022-09-13T15:52:56.688Z,55.80
2022-09-13T15:55:28.227Z,56.10
2022-09-13T15:57:56.395Z,56.50
2022-09-13T16:00:28.846Z,56.80
2022-09-13T16:02:57.026Z,57.10
2022-09-13T16:05:25.430Z,57.70
2022-09-13T16:07:54.883Z,58.30
2022-09-13T16:10:24.386Z,58.00
2022-09-13T16:12:52.533Z,58.20
2022-09-13T16:15:21.244Z,58.50
2022-09-13T16:18:05.673Z,58.80
2022-09-13T16:20:34.455Z,59.20
2022-09-13T16:23:02.606Z,59.60
2022-09-13T16:25:31.266Z,59.60
2022-09-13T16:27:59.799Z,60.50
2022-09-13T16:30:30.534Z,60.90
2022-09-13T16:32:58.908Z,61.50
2022-09-13T16:35:32.876Z,62.10
2022-09-13T16:38:00.849Z,62.60
2022-09-13T16:40:28.920Z,63.30
2022-09-13T16:42:56.989Z,63.50
2022-09-13T16:45:25.398Z,63.70
2022-09-13T16:47:53.651Z,64.30
2022-09-13T16:50:21.647Z,64.70
2022-09-13T16:52:51.231Z,65.60
2022-09-13T16:55:19.679Z,65.40
2022-09-13T16:57:50.196Z,66.10
2022-09-13T17:00:20.146Z,66.10
2022-09-13T17:02:48.803Z,66.80
2022-09-13T17:05:17.114Z,66.80
2022-09-13T17:07:45.157Z,67.00
2022-09-13T17:10:14.690Z,67.50
2022-09-13T17:12:43.405Z,68.00
2022-09-13T17:15:12.176Z,68.70
2022-09-13T17:17:40.146Z,69.20
2022-09-13T17:20:12.237Z,69.80
2022-09-13T17:22:40.669Z,71.10
2022-09-13T17:25:09.577Z,71.60
2022-09-13T17:27:38.973Z,72.20
2022-09-13T17:30:08.145Z,73.10
2022-09-13T17:32:36.152Z,73.40
2022-09-13T17:35:04.227Z,73.90
2022-09-13T17:37:32.200Z,74.80
2022-09-13T17:40:00.380Z,75.80
2022-09-13T17:42:28.401Z,77.10
2022-09-13T17:44:57.730Z,77.70
2022-09-13T17:47:25.754Z,77.90
2022-09-13T17:49:54.514Z,78.10
2022-09-13T17:52:22.492Z,78.80
2022-09-13T17:54:51.199Z,80.00
2022-09-13T17:57:19.151Z,80.70
2022-09-13T17:59:48.055Z,81.90
2022-09-13T18:02:17.665Z,82.50
2022-09-13T18:04:45.711Z,83.40
2022-09-13T18:07:13.807Z,84.00
2022-09-13T18:09:41.762Z,85.30
2022-09-13T18:12:10.187Z,86.20
2022-09-13T18:14:38.275Z,87.30
2022-09-13T18:17:13.032Z,88.20
2022-09-13T18:19:47.113Z,89.20
2022-09-13T18:22:16.174Z,90.50
2022-09-13T18:24:44.538Z,90.60
2022-09-13T18:27:13.029Z,91.40
2022-09-13T18:29:41.010Z,92.30
2022-09-13T18:32:09.347Z,92.40
2022-09-13T18:34:37.315Z,93.20
2022-09-13T18:37:06.842Z,93.50
2022-09-13T18:39:35.707Z,93.60
2022-09-13T18:42:03.983Z,94.30
2022-09-13T18:44:34.102Z,94.40
2022-09-13T18:47:05.220Z,95.10
2022-09-13T18:49:33.451Z,96.00
2022-09-13T18:52:01.575Z,96.20
2022-09-13T18:54:30.909Z,96.70
2022-09-13T18:56:59.205Z,97.20
2022-09-13T18:59:27.701Z,97.60
2022-09-13T19:01:56.498Z,97.50
2022-09-13T19:04:24.854Z,98.30
2022-09-13T19:06:55.734Z,98.40
2022-09-13T19:09:24.099Z,98.40
2022-09-13T19:11:54.626Z,99.00
2022-09-13T19:14:24.994Z,99.50
2022-09-13T19:16:54.953Z,99.40
2022-09-13T19:19:23.418Z,99.30
2022-09-13T19:21:51.442Z,99.60
2022-09-13T19:24:20.830Z,99.90
2022-09-13T19:26:51.720Z,99.90
2022-09-13T19:29:23.078Z,99.90
2022-09-13T19:31:53.305Z,99.90
2022-09-13T19:34:23.248Z,99.90
2022-09-13T19:36:57.450Z,99.90
2022-09-13T19:39:29.504Z,99.90
2022-09-13T19:41:59.031Z,99.90
2022-09-13T19:44:28.528Z,99.90
2022-09-13T19:47:23.652Z,99.90
2022-09-13T19:49:44.778Z,99.90
2022-09-13T19:52:12.793Z,99.90
2022-09-13T19:54:40.876Z,99.90
2022-09-13T19:57:09.900Z,99.90
2022-09-13T19:59:39.458Z,99.90
2022-09-13T20:02:07.546Z,99.90
2022-09-13T20:04:35.821Z,99.90
2022-09-13T20:07:03.972Z,99.90
2022-09-13T20:09:32.527Z,99.90
2022-09-13T20:12:01.357Z,99.90
2022-09-13T20:14:29.347Z,99.90
2022-09-13T20:16:58.891Z,99.90
2022-09-13T20:19:46.433Z,99.90
2022-09-13T20:22:15.279Z,99.90
2022-09-13T20:24:43.371Z,99.90
2022-09-13T20:27:11.516Z,99.90
2022-09-13T20:29:40.349Z,99.90
2022-09-13T20:32:11.111Z,99.90
2022-09-13T20:34:39.238Z,99.90
2022-09-13T20:37:07.219Z,99.90
2022-09-13T20:39:35.741Z,99.90
2022-09-13T20:42:03.691Z,99.90
2022-09-13T20:44:31.809Z,99.90
2022-09-13T20:47:00.384Z,99.90
2022-09-13T20:49:30.208Z,99.90
2022-09-13T20:51:59.216Z,99.90
2022-09-13T20:54:27.442Z,99.90
2022-09-13T20:56:55.713Z,99.90
2022-09-13T20:59:23.699Z,99.90
2022-09-13T21:01:51.964Z,99.90
2022-09-13T21:04:20.055Z,99.90
2022-09-13T21:07:10.966Z,99.90
2022-09-13T21:09:42.275Z,99.90
2022-09-13T21:12:10.542Z,99.90
2022-09-13T21:14:38.556Z,99.90
2022-09-13T21:17:08.037Z,99.90
2022-09-13T21:19:36.635Z,99.90
2022-09-13T21:22:06.017Z,99.90
2022-09-13T21:24:34.277Z,99.90
2022-09-13T21:27:02.375Z,99.90
2022-09-13T21:29:30.426Z,99.90
2022-09-13T21:31:58.506Z,99.90
2022-09-13T21:34:29.717Z,99.90
2022-09-13T21:36:57.906Z,99.90
2022-09-13T21:39:27.399Z,99.90
2022-09-13T21:41:55.566Z,99.90
2022-09-13T21:44:23.762Z,99.90
2022-09-13T21:46:52.502Z,99.90
2022-09-13T21:49:22.056Z,99.90
2022-09-13T21:51:52.985Z,99.90
2022-09-13T21:54:21.941Z,99.90
2022-09-13T21:56:53.432Z,99.90
2022-09-13T21:59:23.340Z,99.90
2022-09-13T22:01:53.034Z,99.90
2022-09-13T22:04:23.360Z,99.90
2022-09-13T22:06:53.627Z,99.90
2022-09-13T22:09:23.643Z,99.90
2022-09-13T22:11:53.075Z,99.90
2022-09-13T22:14:22.518Z,99.90
2022-09-13T22:16:52.868Z,99.90
2022-09-13T22:19:23.441Z,99.90
2022-09-13T22:21:54.827Z,99.90
2022-09-13T22:24:24.719Z,99.90
2022-09-13T22:26:56.465Z,99.90
2022-09-13T22:29:24.862Z,99.90
2022-09-13T22:31:53.324Z,99.90
2022-09-13T22:34:23.985Z,99.90
2022-09-13T22:36:54.045Z,99.90
2022-09-13T22:39:22.735Z,99.90
2022-09-13T22:41:50.860Z,99.90
2022-09-13T22:44:20.489Z,99.90
2022-09-13T22:46:48.703Z,99.90
2022-09-13T22:49:18.590Z,99.90
2022-09-13T22:51:47.976Z,99.90
2022-09-13T22:54:18.335Z,99.90
2022-09-13T22:56:46.853Z,99.90
2022-09-13T22:59:16.657Z,99.90
2022-09-13T23:01:46.162Z,99.90
2022-09-13T23:04:14.819Z,99.90
2022-09-13T23:06:45.139Z,99.90
2022-09-13T23:09:33.287Z,99.90
2022-09-13T23:12:01.503Z,99.90
2022-09-13T23:14:29.850Z,99.90
2022-09-13T23:16:59.435Z,99.90
2022-09-13T23:19:28.302Z,99.90
2022-09-13T23:21:56.506Z,99.90
2022-09-13T23:24:25.451Z,99.90
2022-09-13T23:26:56.849Z,99.90
2022-09-13T23:29:25.532Z,99.90
2022-09-13T23:31:53.756Z,99.90
2022-09-13T23:34:23.736Z,99.90
2022-09-13T23:36:52.404Z,99.90
2022-09-13T23:39:21.874Z,99.90
2022-09-13T23:41:51.582Z,99.90
2022-09-13T23:44:19.874Z,99.90
2022-09-13T23:46:48.031Z,99.90
2022-09-13T23:49:16.746Z,99.90
2022-09-13T23:51:46.453Z,99.90
2022-09-13T23:54:15.274Z,99.90
2022-09-13T23:56:43.805Z,99.90
2022-09-13T23:59:13.941Z,99.90
